createdAt,value
2023-03-08T00:03:43.505Z,57.74
2023-03-08T00:09:04.304Z,57.90
2023-03-08T00:14:25.524Z,57.40
2023-03-08T00:19:46.410Z,58.26
2023-03-08T00:25:09.358Z,58.08
2023-03-08T00:30:30.368Z,58.18
2023-03-08T00:36:04.624Z,58.23
2023-03-08T00:41:25.298Z,58.13
2023-03-08T00:46:46.182Z,58.11
2023-03-08T00:52:08.125Z,58.79
2023-03-08T00:57:32.326Z,58.94
2023-03-08T01:02:53.669Z,58.89
2023-03-08T01:08:15.618Z,59.13
2023-03-08T01:13:36.539Z,58.85
2023-03-08T01:18:58.579Z,59.00
2023-03-08T01:24:19.104Z,59.44
2023-03-08T01:29:39.979Z,59.32
2023-03-08T01:35:04.585Z,59.26
2023-03-08T01:40:25.480Z,59.38
2023-03-08T01:46:27.879Z,59.35
2023-03-08T01:52:06.997Z,59.42
2023-03-08T01:57:33.382Z,59.30
2023-03-08T02:03:02.309Z,59.48
2023-03-08T02:08:23.631Z,59.64
2023-03-08T02:13:46.398Z,59.61
2023-03-08T02:19:42.726Z,60.35
2023-03-08T02:25:14.109Z,59.63
2023-03-08T02:30:37.679Z,59.90
2023-03-08T02:35:58.622Z,59.30
2023-03-08T02:41:20.869Z,59.72
2023-03-08T02:46:41.551Z,59.71
2023-03-08T02:52:02.675Z,59.66
2023-03-08T02:57:23.384Z,59.50
2023-03-08T03:02:45.553Z,59.33
2023-03-08T03:08:06.249Z,59.29
2023-03-08T03:13:27.990Z,59.67
2023-03-08T03:18:49.246Z,59.47
2023-03-08T03:24:09.909Z,59.50
2023-03-08T03:29:39.040Z,59.18
2023-03-08T03:35:06.618Z,59.73
2023-03-08T03:40:28.802Z,59.38
2023-03-08T03:46:03.279Z,59.33
2023-03-08T03:51:24.833Z,59.75
2023-03-08T03:56:58.356Z,59.71
2023-03-08T04:02:22.016Z,59.13
2023-03-08T04:07:48.345Z,59.37
2023-03-08T04:13:15.201Z,59.58
2023-03-08T04:18:37.115Z,59.04
2023-03-08T04:24:00.597Z,59.44
2023-03-08T04:29:22.643Z,59.36
2023-03-08T04:34:44.389Z,59.76
2023-03-08T04:40:09.543Z,59.58
2023-03-08T04:45:37.287Z,59.52
2023-03-08T04:51:04.947Z,59.41
2023-03-08T04:56:26.371Z,59.05
2023-03-08T05:01:47.950Z,59.49
2023-03-08T05:07:09.189Z,59.07
2023-03-08T05:12:30.946Z,59.29
2023-03-08T05:17:54.172Z,59.27
2023-03-08T05:23:14.835Z,58.76
2023-03-08T05:28:37.593Z,59.22
2023-03-08T05:33:59.086Z,58.95
2023-03-08T05:39:28.525Z,59.07
2023-03-08T05:44:57.676Z,58.88
2023-03-08T05:50:22.898Z,59.28
2023-03-08T05:55:46.125Z,59.01
2023-03-08T06:01:21.801Z,59.35
2023-03-08T06:06:43.315Z,59.19
2023-03-08T06:12:04.606Z,59.20
2023-03-08T06:17:25.913Z,58.39
2023-03-08T06:22:49.705Z,59.40
2023-03-08T06:28:11.197Z,58.73
2023-03-08T06:33:35.525Z,58.80
2023-03-08T06:38:57.264Z,58.50
2023-03-08T06:44:19.207Z,58.94
2023-03-08T06:49:39.911Z,59.08
2023-03-08T06:55:00.735Z,58.43
2023-03-08T07:00:22.451Z,58.33
2023-03-08T07:05:43.108Z,58.55
2023-03-08T07:11:04.188Z,58.07
2023-03-08T07:16:25.156Z,57.91
2023-03-08T07:21:45.893Z,58.05
2023-03-08T07:27:06.621Z,58.14
2023-03-08T07:32:29.115Z,58.29
2023-03-08T07:37:50.104Z,58.10
2023-03-08T07:43:10.933Z,57.96
2023-03-08T07:48:55.301Z,58.34
2023-03-08T07:54:16.365Z,57.81
2023-03-08T07:59:36.949Z,58.52
2023-03-08T08:04:57.665Z,57.77
2023-03-08T08:10:18.417Z,58.11
2023-03-08T08:15:39.176Z,57.66
2023-03-08T08:21:11.486Z,57.80
2023-03-08T08:26:32.202Z,57.97
2023-03-08T08:31:53.082Z,57.83
2023-03-08T08:37:14.229Z,57.86
2023-03-08T08:42:34.788Z,58.05
2023-03-08T08:47:55.559Z,58.08
2023-03-08T08:53:16.232Z,57.80
2023-03-08T08:58:36.868Z,57.59
2023-03-08T09:03:58.102Z,57.63
2023-03-08T09:09:19.514Z,57.47
2023-03-08T09:14:40.052Z,57.45
2023-03-08T09:20:00.757Z,57.19
2023-03-08T09:25:24.112Z,57.08
2023-03-08T09:30:45.079Z,57.33
2023-03-08T09:36:05.962Z,57.70
2023-03-08T09:41:50.534Z,57.23
2023-03-08T09:47:32.899Z,57.13
2023-03-08T09:53:00.213Z,56.85
2023-03-08T09:58:33.536Z,57.19
2023-03-08T10:04:21.662Z,57.30
2023-03-08T10:09:55.841Z,56.88
2023-03-08T10:15:20.412Z,56.96
2023-03-08T10:20:42.519Z,56.83
2023-03-08T10:26:12.779Z,56.91
2023-03-08T10:31:33.854Z,57.36
2023-03-08T10:37:04.348Z,57.10
2023-03-08T10:42:28.195Z,57.01
2023-03-08T10:48:04.147Z,57.51
2023-03-08T10:53:24.927Z,56.97
2023-03-08T10:58:48.351Z,57.14
2023-03-08T11:04:20.713Z,57.19
2023-03-08T11:09:41.350Z,57.12
2023-03-08T11:15:02.273Z,57.35
2023-03-08T11:20:39.180Z,57.15
2023-03-08T11:26:13.197Z,57.46
2023-03-08T11:31:51.062Z,57.33
2023-03-08T11:37:31.090Z,57.48
2023-03-08T11:42:55.173Z,57.24
2023-03-08T11:48:45.211Z,57.40
2023-03-08T11:54:19.115Z,57.82
2023-03-08T11:59:43.326Z,57.79
2023-03-08T12:05:17.195Z,57.88
2023-03-08T12:10:51.501Z,58.17
2023-03-08T12:16:21.384Z,58.57
2023-03-08T12:21:48.154Z,58.49
2023-03-08T12:27:19.598Z,58.55
2023-03-08T12:32:42.161Z,59.60
2023-03-08T12:38:05.175Z,59.08
2023-03-08T12:43:25.631Z,59.29
2023-03-08T12:48:46.546Z,59.68
2023-03-08T12:54:21.915Z,60.25
2023-03-08T12:59:42.710Z,60.49
2023-03-08T13:05:03.923Z,61.63
2023-03-08T13:10:33.772Z,61.93
2023-03-08T13:16:19.831Z,62.13
2023-03-08T13:21:49.142Z,63.14
2023-03-08T13:27:28.402Z,63.85
2023-03-08T13:32:50.277Z,64.07
2023-03-08T13:38:22.469Z,64.01
2023-03-08T13:43:43.204Z,64.51
2023-03-08T13:49:03.924Z,64.69
2023-03-08T13:54:29.464Z,64.53
2023-03-08T13:59:56.464Z,65.22
2023-03-08T14:05:24.052Z,65.59
2023-03-08T14:10:52.038Z,65.52
2023-03-08T14:16:30.168Z,65.22
2023-03-08T14:21:55.934Z,65.60
2023-03-08T14:27:17.001Z,65.76
2023-03-08T14:32:38.733Z,65.84
2023-03-08T14:37:59.539Z,65.74
2023-03-08T14:43:27.671Z,65.57
2023-03-08T14:48:58.219Z,65.54
2023-03-08T14:54:38.505Z,65.49
2023-03-08T15:00:14.247Z,65.96
2023-03-08T15:05:36.603Z,65.52
2023-03-08T15:10:57.585Z,65.43
2023-03-08T15:16:18.479Z,66.24
2023-03-08T15:21:39.416Z,66.18
2023-03-08T15:27:00.475Z,68.66
2023-03-08T15:32:21.383Z,66.27
2023-03-08T15:37:43.982Z,66.36
2023-03-08T15:43:04.759Z,66.25
2023-03-08T15:48:25.519Z,66.57
2023-03-08T15:53:47.129Z,66.83
2023-03-08T15:59:07.986Z,66.87
2023-03-08T16:04:28.650Z,66.95
2023-03-08T16:09:49.501Z,67.46
2023-03-08T16:15:10.643Z,67.37
2023-03-08T16:20:31.682Z,67.61
2023-03-08T16:26:15.113Z,67.45
2023-03-08T16:31:36.539Z,68.11
2023-03-08T16:36:57.679Z,68.19
2023-03-08T16:42:19.542Z,71.15
2023-03-08T16:47:40.209Z,68.66
2023-03-08T16:53:00.988Z,68.12
2023-03-08T16:58:21.936Z,68.77
2023-03-08T17:03:43.196Z,68.64
2023-03-08T17:09:05.387Z,68.94
2023-03-08T17:14:26.384Z,69.16
2023-03-08T17:19:47.019Z,69.11
2023-03-08T17:25:08.304Z,69.67
2023-03-08T17:30:29.608Z,70.01
2023-03-08T17:35:56.528Z,69.57
2023-03-08T17:41:17.325Z,70.08
2023-03-08T17:46:38.194Z,69.68
2023-03-08T17:51:59.052Z,70.17
2023-03-08T17:57:23.568Z,70.00
2023-03-08T18:02:44.356Z,70.14
2023-03-08T18:08:05.255Z,70.45
2023-03-08T18:13:26.290Z,70.84
2023-03-08T18:18:49.717Z,70.20
2023-03-08T18:24:14.025Z,70.52
2023-03-08T18:29:35.579Z,70.75
2023-03-08T18:34:56.512Z,71.04
2023-03-08T18:40:17.373Z,71.24
2023-03-08T18:45:38.283Z,70.92
2023-03-08T18:51:02.071Z,70.44
2023-03-08T18:56:24.542Z,71.01
2023-03-08T19:01:45.575Z,71.13
2023-03-08T19:07:06.191Z,71.02
2023-03-08T19:12:27.909Z,71.38
2023-03-08T19:17:48.508Z,71.66
2023-03-08T19:23:10.247Z,71.66
2023-03-08T19:28:31.012Z,71.54
2023-03-08T19:33:52.199Z,71.53
2023-03-08T19:39:17.071Z,72.24
2023-03-08T19:44:38.892Z,72.11
2023-03-08T19:49:59.519Z,72.07
2023-03-08T19:55:20.698Z,72.18
2023-03-08T20:00:44.134Z,72.29
2023-03-08T20:06:05.833Z,72.27
2023-03-08T20:11:27.294Z,72.18
2023-03-08T20:16:48.364Z,72.31
2023-03-08T20:22:09.216Z,72.36
2023-03-08T20:27:31.438Z,72.61
2023-03-08T20:32:52.407Z,72.75
2023-03-08T20:38:13.521Z,72.71
2023-03-08T20:43:34.289Z,72.71
2023-03-08T20:48:55.063Z,72.69
2023-03-08T20:54:15.759Z,72.87
2023-03-08T20:59:36.967Z,72.72
2023-03-08T21:04:58.183Z,72.97
2023-03-08T21:10:19.266Z,72.98
2023-03-08T21:15:40.350Z,73.21
2023-03-08T21:21:01.247Z,73.21
2023-03-08T21:26:25.756Z,73.60
2023-03-08T21:31:52.566Z,73.64
2023-03-08T21:37:13.763Z,73.72
2023-03-08T21:42:34.456Z,73.60
2023-03-08T21:47:57.602Z,73.57
2023-03-08T21:53:18.761Z,73.83
2023-03-08T21:58:39.866Z,73.81
2023-03-08T22:04:01.964Z,74.12
2023-03-08T22:09:26.731Z,74.08
2023-03-08T22:14:47.517Z,73.98
2023-03-08T22:20:10.887Z,74.28
2023-03-08T22:25:31.873Z,74.05
2023-03-08T22:30:52.704Z,74.26
2023-03-08T22:36:15.798Z,74.43
2023-03-08T22:41:37.322Z,74.40
2023-03-08T22:46:58.052Z,74.74
2023-03-08T22:52:19.407Z,73.98
2023-03-08T22:57:40.374Z,74.35
2023-03-08T23:03:01.090Z,74.49
2023-03-08T23:08:24.441Z,74.46
2023-03-08T23:13:45.126Z,74.40
2023-03-08T23:19:05.923Z,74.76
2023-03-08T23:24:26.868Z,74.30
2023-03-08T23:29:47.465Z,74.31
2023-03-08T23:35:11.067Z,74.13
2023-03-08T23:40:32.093Z,74.88
2023-03-08T23:45:52.710Z,74.85
2023-03-08T23:51:16.943Z,74.85
2023-03-08T23:56:39.625Z,74.55
